Time;durP1;ratioP1;P1;durP2;ratioP2;P2;SDS_P1;SDS_P2;PMS_P1;PMS_P2;Temp;Humidity;BMP_temperature;BMP_pressure;BME280_temperature;BME280_humidity;BME280_pressure;Samples;Min_cycle;Max_cycle;Signal;HPM_P1;HPM_P2
2023/01/26 00:01:27;;;;;;;129.38;44.22;;;;;;;-2.52;100.00;102573.72;5051501;28;20043;-75
2023/01/26 00:03:52;;;;;;;127.22;41.95;;;;;;;-2.51;100.00;102575.50;5039776;28;20036;-75
2023/01/26 00:06:20;;;;;;;127.30;40.65;;;;;;;-2.54;100.00;102574.44;5052029;28;20132;-75
2023/01/26 00:08:48;;;;;;;126.78;39.35;;;;;;;-2.59;100.00;102562.28;5047921;28;20496;-75
2023/01/26 00:11:16;;;;;;;112.30;39.55;;;;;;;-2.50;100.00;102571.28;5043378;28;20025;-75
2023/01/26 00:13:41;;;;;;;127.00;41.08;;;;;;;-2.49;100.00;102562.81;5051177;28;20048;-75
2023/01/26 00:16:09;;;;;;;121.03;41.10;;;;;;;-2.50;100.00;102561.06;5052782;28;20037;-75
2023/01/26 00:18:36;;;;;;;114.90;41.17;;;;;;;-2.53;100.00;102556.66;5049503;28;20075;-75
2023/01/26 00:21:02;;;;;;;117.65;41.22;;;;;;;-2.53;100.00;102566.00;5051863;28;20013;-75
2023/01/26 00:23:30;;;;;;;115.03;39.13;;;;;;;-2.52;100.00;102548.19;5051052;28;20111;-75
2023/01/26 00:25:56;;;;;;;120.60;41.05;;;;;;;-2.48;100.00;102554.38;5049411;28;20048;-75
2023/01/26 00:28:23;;;;;;;119.95;39.67;;;;;;;-2.55;100.00;102540.38;5045021;28;20530;-75
2023/01/26 00:30:48;;;;;;;123.00;40.63;;;;;;;-2.60;100.00;102529.88;5048500;28;20754;-75
2023/01/26 00:33:14;;;;;;;115.97;40.08;;;;;;;-2.48;100.00;102551.81;5034561;28;20072;-75
2023/01/26 00:35:43;;;;;;;120.50;38.63;;;;;;;-2.48;100.00;102541.59;5048698;28;20040;-75
2023/01/26 00:38:09;;;;;;;113.45;40.00;;;;;;;-2.48;100.00;102541.59;5051167;28;20041;-75
2023/01/26 00:40:35;;;;;;;111.95;39.08;;;;;;;-2.46;100.00;102545.09;5050115;28;20029;-75
2023/01/26 00:43:00;;;;;;;122.78;40.78;;;;;;;-2.46;100.00;102530.66;5050453;28;20052;-75
2023/01/26 00:45:26;;;;;;;124.90;41.88;;;;;;;-2.43;100.00;102535.94;5048156;28;20112;-75
2023/01/26 00:47:52;;;;;;;117.68;39.33;;;;;;;-2.44;100.00;102523.09;5048800;28;20025;-75
2023/01/26 00:50:18;;;;;;;113.60;38.72;;;;;;;-2.44;100.00;102526.53;5047542;28;20037;-76
2023/01/26 00:52:43;;;;;;;119.20;39.92;;;;;;;-2.47;100.00;102510.16;5052583;28;20051;-75
2023/01/26 00:55:09;;;;;;;110.43;38.03;;;;;;;-2.41;100.00;102521.59;5048391;28;20060;-76
2023/01/26 00:57:34;;;;;;;109.25;37.08;;;;;;;-2.46;100.00;102502.56;5051317;28;20021;-75
2023/01/26 00:59:59;;;;;;;110.63;39.20;;;;;;;-2.39;100.00;102514.00;5040771;28;20036;-76
2023/01/26 01:02:25;;;;;;;107.15;37.67;;;;;;;-2.39;100.00;102514.91;5045902;28;20476;-75
2023/01/26 01:04:50;;;;;;;110.28;37.17;;;;;;;-2.40;100.00;102508.03;5051364;28;20078;-75
2023/01/26 01:07:15;;;;;;;119.07;41.08;;;;;;;-2.41;100.00;102502.84;5050643;28;20025;-75
2023/01/26 01:09:40;;;;;;;109.20;37.50;;;;;;;-2.43;100.00;102501.88;5043167;28;20025;-75
2023/01/26 01:12:06;;;;;;;108.38;37.83;;;;;;;-2.37;100.00;102508.19;5048923;28;20078;-75
2023/01/26 01:14:31;;;;;;;108.40;37.35;;;;;;;-2.37;100.00;102497.97;5050378;28;20090;-76
2023/01/26 01:16:57;;;;;;;111.80;38.05;;;;;;;-2.36;100.00;102493.75;5049459;28;20487;-75
2023/01/26 01:19:22;;;;;;;97.40;35.67;;;;;;;-2.38;100.00;102496.22;5048454;28;20420;-75
2023/01/26 01:21:49;;;;;;;100.65;36.38;;;;;;;-2.35;100.00;102505.75;5044520;28;20017;-75
2023/01/26 01:24:14;;;;;;;105.28;38.53;;;;;;;-2.35;100.00;102505.75;5038605;28;20166;-75
2023/01/26 01:26:39;;;;;;;103.85;36.25;;;;;;;-2.37;100.00;102508.19;5043918;28;20423;-75
2023/01/26 01:29:06;;;;;;;101.05;35.85;;;;;;;-2.38;100.00;102508.13;5051046;28;20060;-75
2023/01/26 01:31:31;;;;;;;97.35;35.60;;;;;;;-2.39;100.00;102493.56;5041379;28;20455;-76
2023/01/26 01:33:56;;;;;;;99.10;35.38;;;;;;;-2.39;100.00;102493.56;5047530;28;20112;-75
2023/01/26 01:36:22;;;;;;;94.57;35.05;;;;;;;-2.38;100.00;102501.34;5048786;28;20124;-75
2023/01/26 01:38:48;;;;;;;95.28;33.70;;;;;;;-2.37;100.00;102502.22;5050905;28;20048;-75
2023/01/26 01:41:17;;;;;;;110.68;38.13;;;;;;;-2.40;100.00;102495.25;5043387;28;20473;-75
2023/01/26 01:43:43;;;;;;;102.15;38.13;;;;;;;-2.37;100.00;102497.97;5049790;28;20120;-75
2023/01/26 01:46:30;;;;;;;105.85;36.47;;;;;;;-2.37;100.00;102502.22;5047623;28;20111;-75
2023/01/26 01:49:04;;;;;;;100.10;34.92;;;;;;;-2.38;100.00;102497.91;5037112;28;20032;-75
2023/01/26 01:51:32;;;;;;;;;;;;;;;-2.36;100.00;102497.16;5048368;28;20029;-75
2023/01/26 01:54:01;;;;;;;91.07;32.78;;;;;;;-2.40;100.00;102492.69;5051748;28;19917;-75
2023/01/26 01:56:28;;;;;;;101.35;36.08;;;;;;;-2.36;100.00;102503.97;5050061;28;20044;-75
2023/01/26 01:58:57;;;;;;;99.63;34.40;;;;;;;-2.36;100.00;102509.06;5051177;28;20438;-75
2023/01/26 02:01:23;;;;;;;107.22;35.75;;;;;;;-2.34;100.00;102507.50;5050571;28;20103;-75
2023/01/26 02:03:52;;;;;;;103.30;35.85;;;;;;;-2.39;100.00;102498.69;5049681;28;20029;-75
2023/01/26 02:06:23;;;;;;;95.65;33.92;;;;;;;-2.37;100.00;102495.41;5047145;28;20040;-76
2023/01/26 02:08:54;;;;;;;111.07;36.85;;;;;;;-2.37;100.00;102497.09;5051285;28;20377;-75
2023/01/26 02:11:25;;;;;;;110.25;35.55;;;;;;;-2.38;100.00;102497.91;5046208;28;20492;-76
2023/01/26 02:13:51;;;;;;;105.97;36.88;;;;;;;-2.39;100.00;102491.00;5048778;28;20025;-76
2023/01/26 02:16:17;;;;;;;107.53;35.88;;;;;;;-2.41;100.00;102490.06;5041905;28;20044;-75
2023/01/26 02:18:44;;;;;;;104.20;35.55;;;;;;;-2.40;100.00;102482.47;5050677;28;20057;-75
2023/01/26 02:21:14;;;;;;;94.75;33.95;;;;;;;-2.37;100.00;102476.66;5047552;28;20025;-75
2023/01/26 02:23:45;;;;;;;99.13;34.47;;;;;;;-2.40;100.00;102458.63;5053370;28;20139;-75
2023/01/26 02:26:14;;;;;;;102.68;34.60;;;;;;;-2.32;100.00;102475.25;5038744;28;20388;-75
2023/01/26 02:28:41;;;;;;;110.05;35.95;;;;;;;-2.32;100.00;102477.81;5053449;28;20471;-75
2023/01/26 02:31:07;;;;;;;101.05;34.42;;;;;;;-2.31;100.00;102476.13;5049581;28;20055;-75
2023/01/26 02:33:33;;;;;;;100.60;34.75;;;;;;;-2.33;100.00;102467.50;5052711;28;20044;-75
2023/01/26 02:35:59;;;;;;;96.75;35.05;;;;;;;-2.30;100.00;102468.53;5043276;28;20021;-75
2023/01/26 02:38:32;;;;;;;103.95;34.08;;;;;;;-2.34;100.00;102463.19;5053381;28;20049;-75
2023/01/26 02:41:03;;;;;;;97.73;35.27;;;;;;;-2.25;100.00;102468.81;5043237;28;20505;-75
2023/01/26 02:43:29;;;;;;;101.82;35.70;;;;;;;-2.32;100.00;102459.03;5047554;28;20033;-75
2023/01/26 02:45:54;;;;;;;99.93;33.88;;;;;;;-2.24;100.00;102476.53;5049904;28;20027;-76
2023/01/26 02:51:04;;;;;;;97.75;34.22;;;;;;;-2.22;100.00;102467.28;5053046;28;20083;-75
2023/01/26 02:53:29;;;;;;;94.45;33.13;;;;;;;-2.22;100.00;102462.19;5054203;28;20028;-75
2023/01/26 02:55:55;;;;;;;106.15;35.40;;;;;;;-2.22;100.00;102467.28;5053781;28;20059;-75
2023/01/26 02:58:20;;;;;;;102.28;34.03;;;;;;;-2.19;100.00;102467.47;5055083;28;20050;-75
2023/01/26 03:00:45;;;;;;;106.20;35.58;;;;;;;-2.19;100.00;102466.56;5048492;28;20135;-76
2023/01/26 03:03:14;;;;;;;96.80;34.22;;;;;;;-2.17;100.00;102470.97;5054002;28;20107;-76
2023/01/26 03:05:39;;;;;;;97.45;34.15;;;;;;;-2.18;100.00;102465.78;5052170;28;20115;-75
2023/01/26 03:08:05;;;;;;;100.63;34.70;;;;;;;-2.19;100.00;102452.13;5051606;28;20104;-76
2023/01/26 03:10:31;;;;;;;93.90;33.75;;;;;;;-2.19;100.00;102458.91;5048074;28;20037;-75
2023/01/26 03:12:56;;;;;;;103.85;33.92;;;;;;;-2.19;100.00;102457.25;5053400;28;20029;-75
2023/01/26 03:15:41;;;;;;;102.82;34.20;;;;;;;-2.15;100.00;102460.84;5050851;28;20036;-76
2023/01/26 03:29:05;;;;;;;88.72;28.73;;;;;;;-2.15;100.00;102456.59;5046930;28;19940;-75
2023/01/26 03:31:31;;;;;;;94.68;32.42;;;;;;;-2.14;100.00;102462.59;5049177;28;20488;-75
2023/01/26 03:33:58;;;;;;;93.28;31.90;;;;;;;-2.15;100.00;102453.19;5047887;28;20495;-75
2023/01/26 03:36:23;;;;;;;100.57;33.05;;;;;;;-2.13;100.00;102459.22;5047117;28;20040;-76
2023/01/26 03:38:48;;;;;;;90.25;31.77;;;;;;;-2.12;100.00;102450.78;5054090;28;20033;-76
2023/01/26 03:57:37;;;;;;;89.28;29.98;;;;;;;-2.01;100.00;102446.25;5053140;28;20007;-75
2023/01/26 04:00:05;;;;;;;84.45;28.70;;;;;;;-2.02;100.00;102444.50;5053263;28;20060;-75
2023/01/26 04:08:21;;;;;;;83.18;26.67;;;;;;;-1.98;100.00;102431.06;5052744;28;20355;-75
2023/01/26 04:10:49;;;;;;;79.43;26.98;;;;;;;-1.94;100.00;102433.00;5047258;28;20099;-75
2023/01/26 04:21:34;;;;;;;83.75;27.65;;;;;;;-1.89;100.00;102431.56;5043453;28;20088;-75
2023/01/26 04:24:01;;;;;;;84.75;28.13;;;;;;;-1.86;100.00;102441.97;5050936;28;20040;-75
2023/01/26 04:26:33;;;;;;;80.82;28.23;;;;;;;-1.84;100.00;102440.34;5049560;28;20032;-75
2023/01/26 04:29:00;;;;;;;94.95;29.73;;;;;;;-1.85;100.00;102443.72;5050504;28;20029;-75
2023/01/26 04:31:25;;;;;;;89.70;29.20;;;;;;;-1.81;100.00;102437.06;5043766;28;20392;-75
2023/01/26 04:33:51;;;;;;;94.45;27.52;;;;;;;-1.79;100.00;102432.94;5047727;28;20021;-75
2023/01/26 04:36:18;;;;;;;91.43;28.80;;;;;;;-1.77;100.00;102434.75;5050142;28;20025;-75
2023/01/26 04:38:43;;;;;;;90.82;27.65;;;;;;;-1.82;100.00;102431.09;5051615;28;20111;-75
2023/01/26 04:41:08;;;;;;;82.30;27.88;;;;;;;-1.76;100.00;102439.09;5050365;28;20721;-75
2023/01/26 04:43:33;;;;;;;83.22;27.13;;;;;;;-1.77;100.00;102433.88;5051476;28;20025;-75
2023/01/26 04:46:02;;;;;;;80.95;26.88;;;;;;;-1.75;100.00;102438.28;5045607;28;20025;-75
2023/01/26 04:48:28;;;;;;;77.82;25.73;;;;;;;-1.78;100.00;102430.44;5052248;28;20049;-75
2023/01/26 04:50:55;;;;;;;77.90;25.27;;;;;;;-1.74;100.00;102436.59;5051067;28;20017;-75
2023/01/26 04:53:21;;;;;;;83.80;26.30;;;;;;;-1.77;100.00;102442.41;5051556;28;20033;-75
2023/01/26 04:55:46;;;;;;;74.00;25.17;;;;;;;-1.82;100.00;102430.22;5039092;28;20431;-75
2023/01/26 04:58:12;;;;;;;86.38;25.50;;;;;;;-1.80;100.00;102426.94;5050387;28;20025;-75
2023/01/26 05:00:38;;;;;;;84.38;26.38;;;;;;;-1.74;100.00;102440.00;5045197;28;20496;-75
2023/01/26 05:03:03;;;;;;;80.28;25.15;;;;;;;-1.73;100.00;102428.13;5052210;28;20059;-75
2023/01/26 05:05:28;;;;;;;80.18;23.13;;;;;;;-1.72;100.00;102429.88;5049081;28;20121;-75
2023/01/26 05:07:54;;;;;;;74.72;24.02;;;;;;;-1.72;100.00;102424.78;5051551;28;20075;-75
2023/01/26 05:10:19;;;;;;;78.35;24.67;;;;;;;-1.71;100.00;102422.28;5045580;28;20112;-75
2023/01/26 05:12:44;;;;;;;75.32;24.10;;;;;;;-1.75;100.00;102428.03;5051545;28;20032;-75
2023/01/26 05:15:09;;;;;;;74.22;23.80;;;;;;;-1.71;100.00;102434.19;5042190;28;20112;-75
2023/01/26 05:17:35;;;;;;;72.78;22.58;;;;;;;-1.76;100.00;102415.19;5051870;28;20369;-75
2023/01/26 05:20:02;;;;;;;75.28;23.15;;;;;;;-1.77;100.00;102426.19;5040221;28;20045;-75
2023/01/26 05:22:28;;;;;;;71.00;22.15;;;;;;;-1.73;100.00;102426.47;5037285;28;20388;-75
2023/01/26 05:24:53;;;;;;;70.70;22.48;;;;;;;-1.74;100.00;102427.22;5051405;28;20033;-75
2023/01/26 05:27:21;;;;;;;74.93;23.05;;;;;;;-1.72;100.00;102427.31;5051568;28;20029;-75
2023/01/26 05:29:50;;;;;;;72.60;22.48;;;;;;;-1.71;100.00;102432.50;5038024;28;20029;-75
2023/01/26 05:32:16;;;;;;;71.63;22.70;;;;;;;-1.75;100.00;102427.16;5048596;28;20488;-75
2023/01/26 05:34:42;;;;;;;70.80;22.75;;;;;;;-1.70;100.00;102439.41;5049891;28;20203;-75
2023/01/26 05:37:07;;;;;;;69.95;21.38;;;;;;;-1.75;100.00;102438.28;5039901;28;20089;-75
2023/01/26 05:39:32;;;;;;;70.97;21.88;;;;;;;-1.73;100.00;102433.25;5049517;28;20033;-75
2023/01/26 05:41:57;;;;;;;68.47;22.42;;;;;;;-1.71;100.00;102432.50;5046859;28;20018;-75
2023/01/26 05:44:23;;;;;;;69.93;22.35;;;;;;;-1.70;100.00;102438.50;5047131;28;20028;-75
2023/01/26 05:46:49;;;;;;;70.28;21.63;;;;;;;-1.68;100.00;102449.69;5039856;28;20034;-75
2023/01/26 05:49:15;;;;;;;64.68;20.52;;;;;;;-1.73;100.00;102425.59;5046088;28;20025;-75
2023/01/26 05:51:40;;;;;;;73.75;21.02;;;;;;;-1.67;100.00;102431.91;5048395;28;20036;-75
2023/01/26 05:54:05;;;;;;;66.63;20.77;;;;;;;-1.63;100.00;102445.72;5046145;28;20037;-75
2023/01/26 05:56:30;;;;;;;68.18;21.80;;;;;;;-1.63;100.00;102440.59;5050646;28;20255;-75
2023/01/26 05:58:56;;;;;;;66.97;21.50;;;;;;;-1.63;100.00;102440.59;5052045;28;20036;-75
2023/01/26 06:01:21;;;;;;;62.13;19.40;;;;;;;-1.61;100.00;102438.97;5054130;28;20025;-75
2023/01/26 06:03:46;;;;;;;64.05;20.05;;;;;;;-1.63;100.00;102438.03;5050489;28;20029;-75
2023/01/26 06:06:12;;;;;;;66.03;20.30;;;;;;;-1.60;100.00;102439.84;5050649;28;20071;-75
2023/01/26 06:08:37;;;;;;;66.75;20.20;;;;;;;-1.62;100.00;102446.59;5054773;28;20063;-76
2023/01/26 06:11:02;;;;;;;65.97;20.30;;;;;;;-1.65;100.00;102439.63;5051497;28;20383;-75
2023/01/26 06:13:28;;;;;;;69.22;20.50;;;;;;;-1.63;100.00;102458.50;5042400;28;20064;-76
2023/01/26 06:15:54;;;;;;;65.38;18.70;;;;;;;-1.66;100.00;102446.44;5053968;28;20039;-75
2023/01/26 06:18:19;;;;;;;62.70;19.65;;;;;;;-1.62;100.00;102451.69;5052495;28;20465;-75
2023/01/26 06:20:44;;;;;;;60.08;18.20;;;;;;;-1.61;100.00;102459.44;5050394;28;20033;-75
2023/01/26 06:23:10;;;;;;;68.07;19.88;;;;;;;-1.61;100.00;102458.56;5055256;28;20025;-76
2023/01/26 06:25:38;;;;;;;66.60;19.60;;;;;;;-1.62;100.00;102449.16;5053974;28;20370;-75
2023/01/26 06:28:04;;;;;;;65.13;19.85;;;;;;;-1.58;100.00;102456.16;5052427;28;20574;-75
2023/01/26 06:30:29;;;;;;;63.83;19.98;;;;;;;-1.60;100.00;102442.41;5042022;28;20052;-75
2023/01/26 06:32:55;;;;;;;73.70;21.27;;;;;;;-1.58;100.00;102451.94;5053968;28;20032;-75
2023/01/26 06:35:21;;;;;;;74.28;20.70;;;;;;;-1.59;100.00;102452.72;5053124;28;20056;-75
2023/01/26 06:37:50;;;;;;;76.85;21.92;;;;;;;-1.60;100.00;102451.00;5053882;28;20048;-75
2023/01/26 06:40:16;;;;;;;71.82;21.52;;;;;;;-1.58;100.00;102449.38;5052076;28;20029;-75
2023/01/26 06:42:52;;;;;;;70.28;21.40;;;;;;;-1.56;100.00;102458.00;5050405;28;20086;-75
2023/01/26 06:45:19;;;;;;;65.10;19.77;;;;;;;-1.57;100.00;102455.34;5050902;28;20105;-75
2023/01/26 06:47:48;;;;;;;64.05;18.73;;;;;;;-1.63;100.00;102450.81;5040349;28;20025;-75
2023/01/26 06:50:17;;;;;;;63.22;19.33;;;;;;;-1.57;100.00;102458.81;5049853;28;20029;-75
2023/01/26 06:52:45;;;;;;;72.22;19.33;;;;;;;-1.56;100.00;102457.13;5052330;28;20017;-75
2023/01/26 06:55:19;;;;;;;66.18;19.80;;;;;;;-1.55;100.00;102462.31;5054031;28;20036;-75
2023/01/26 06:57:44;;;;;;;70.10;19.05;;;;;;;-1.61;100.00;102454.31;5053753;28;20427;-75
2023/01/26 07:00:11;;;;;;;68.70;19.98;;;;;;;-1.55;100.00;102474.22;5050974;28;20025;-75
2023/01/26 07:02:36;;;;;;;70.28;18.98;;;;;;;-1.54;100.00;102466.63;5053826;28;20025;-75
2023/01/26 07:05:01;;;;;;;65.82;19.30;;;;;;;-1.54;100.00;102464.06;5052938;28;20074;-75
2023/01/26 07:07:28;;;;;;;70.28;20.60;;;;;;;-1.53;100.00;102467.53;5053026;28;20041;-75
2023/01/26 07:09:53;;;;;;;71.07;20.35;;;;;;;-1.52;100.00;102457.38;5049374;28;20029;-75
2023/01/26 07:12:18;;;;;;;73.45;20.75;;;;;;;-1.53;100.00;102452.19;5051055;28;20036;-75
2023/01/26 07:14:43;;;;;;;70.85;20.67;;;;;;;-1.49;100.00;102469.44;5051748;28;20029;-75
2023/01/26 07:17:09;;;;;;;72.13;19.60;;;;;;;-1.50;100.00;102467.69;5053705;28;20060;-75
2023/01/26 07:19:35;;;;;;;71.05;20.17;;;;;;;-1.50;100.00;102477.94;5049128;28;20107;-75
2023/01/26 07:22:00;;;;;;;70.07;20.10;;;;;;;-1.54;100.00;102470.88;5053271;28;20029;-75
2023/01/26 07:24:26;;;;;;;70.35;18.02;;;;;;;-1.49;100.00;102483.09;5051871;28;20503;-75
2023/01/26 07:26:51;;;;;;;61.60;18.27;;;;;;;-1.47;100.00;102485.75;5051802;28;20049;-75
2023/01/26 07:29:17;;;;;;;71.47;19.70;;;;;;;-1.50;100.00;102463.44;5049835;28;20036;-75
2023/01/26 07:31:43;;;;;;;71.50;18.55;;;;;;;-1.51;100.00;102465.91;5039683;28;20029;-75
2023/01/26 07:34:09;;;;;;;65.32;19.65;;;;;;;-1.43;100.00;102473.19;5051054;28;20079;-75
2023/01/26 07:36:34;;;;;;;72.85;20.10;;;;;;;-1.43;100.00;102472.31;5051689;28;20855;-76
2023/01/26 07:38:59;;;;;;;73.00;19.02;;;;;;;-1.40;100.00;102479.28;5053876;28;20054;-75
2023/01/26 07:41:25;;;;;;;76.00;20.20;;;;;;;-1.48;100.00;102463.50;5052207;28;20032;-75
2023/01/26 07:43:50;;;;;;;65.82;20.38;;;;;;;-1.36;100.00;102478.63;5053540;28;20478;-75
2023/01/26 07:46:16;;;;;;;70.03;19.27;;;;;;;-1.35;100.00;102478.69;5047390;28;20029;-75
2023/01/26 07:48:41;;;;;;;73.95;20.33;;;;;;;-1.34;100.00;102477.00;5045962;28;20032;-75
2023/01/26 07:51:08;;;;;;;68.13;20.60;;;;;;;-1.31;100.00;102484.84;5051441;28;20071;-76
2023/01/26 07:53:38;;;;;;;70.65;19.08;;;;;;;-1.29;100.00;102484.13;5053381;28;20021;-75
2023/01/26 07:56:14;;;;;;;75.53;20.10;;;;;;;-1.30;100.00;102484.06;5050008;28;20036;-75
2023/01/26 07:58:40;;;;;;;67.22;19.73;;;;;;;-1.26;100.00;102493.66;5043676;28;20035;-75
2023/01/26 08:01:07;;;;;;;77.63;20.63;;;;;;;-1.25;100.00;102495.41;5051488;28;20469;-75
2023/01/26 08:03:32;;;;;;;62.63;20.15;;;;;;;-1.31;100.00;102490.88;5052483;28;20032;-75
2023/01/26 08:05:57;;;;;;;71.13;18.52;;;;;;;-1.26;100.00;102493.66;5051318;28;20033;-75
2023/01/26 08:08:23;;;;;;;70.00;19.45;;;;;;;-1.22;100.00;102501.53;5048152;28;20033;-75
2023/01/26 08:10:48;;;;;;;74.60;19.55;;;;;;;-1.21;100.00;102500.75;5049352;28;20488;-75
2023/01/26 08:13:13;;;;;;;79.78;19.77;;;;;;;-1.25;100.00;102491.16;5048229;28;20036;-75
2023/01/26 08:15:40;;;;;;;80.22;20.88;;;;;;;-1.21;100.00;102495.66;5053103;28;20025;-75
2023/01/26 08:18:05;;;;;;;73.13;19.92;;;;;;;-1.16;100.00;102503.56;5050255;28;20083;-75
2023/01/26 08:20:30;;;;;;;74.68;19.70;;;;;;;-1.12;100.00;102502.88;5052068;28;20289;-75
2023/01/26 08:22:56;;;;;;;77.47;21.25;;;;;;;-1.15;100.00;102505.28;5051675;28;20100;-75
2023/01/26 08:25:21;;;;;;;73.82;19.98;;;;;;;-1.09;100.00;102512.41;5051618;28;20056;-75
2023/01/26 08:27:46;;;;;;;80.13;21.33;;;;;;;-1.09;100.00;102513.28;5051719;28;20035;-75
2023/01/26 08:30:12;;;;;;;82.10;21.27;;;;;;;-1.07;100.00;102515.94;5050972;28;20028;-75
2023/01/26 08:32:37;;;;;;;76.93;21.33;;;;;;;-1.06;100.00;102513.44;5051152;28;20025;-75
2023/01/26 08:35:03;;;;;;;83.68;21.35;;;;;;;-1.04;100.00;102514.41;5048424;28;20518;-75
2023/01/26 08:37:28;;;;;;;81.70;22.48;;;;;;;-1.06;100.00;102507.44;5040238;28;20045;-75
2023/01/26 08:39:54;;;;;;;81.70;21.40;;;;;;;-1.03;100.00;102518.72;5051175;28;20492;-76
2023/01/26 08:42:19;;;;;;;78.90;21.65;;;;;;;-1.01;100.00;102522.25;5051297;28;20063;-75
2023/01/26 08:44:44;;;;;;;72.45;20.95;;;;;;;-1.01;100.00;102513.69;5047843;28;20486;-75
2023/01/26 08:47:10;;;;;;;84.03;21.98;;;;;;;-1.00;100.00;102518.88;5048569;28;20060;-76
2023/01/26 08:49:35;;;;;;;72.70;21.55;;;;;;;-0.98;100.00;102514.72;5051503;28;20048;-75
2023/01/26 08:52:00;;;;;;;83.65;22.13;;;;;;;-1.02;100.00;102505.13;5051767;28;20025;-75
2023/01/26 08:54:26;;;;;;;79.85;21.55;;;;;;;-0.91;100.00;102528.72;5052405;28;20035;-75
2023/01/26 08:56:53;;;;;;;84.13;22.60;;;;;;;-0.87;100.00;102534.88;5051683;28;20021;-75
2023/01/26 08:59:18;;;;;;;76.30;21.10;;;;;;;-0.85;100.00;102533.25;5048261;28;20076;-75
2023/01/26 09:01:44;;;;;;;87.28;23.05;;;;;;;-0.83;100.00;102529.09;5052303;28;20021;-75
2023/01/26 09:04:09;;;;;;;82.32;22.35;;;;;;;-0.78;100.00;102530.22;5052199;28;20033;-76
2023/01/26 09:06:34;;;;;;;84.20;21.92;;;;;;;-0.71;100.00;102528.03;5032413;28;20039;-76
2023/01/26 09:08:59;;;;;;;85.15;24.23;;;;;;;-0.64;100.00;102523.22;5051673;28;20050;-76
2023/01/26 09:11:25;;;;;;;84.32;22.05;;;;;;;-0.62;100.00;102527.59;5052131;28;20048;-76
2023/01/26 09:13:55;;;;;;;86.20;22.88;;;;;;;-0.60;100.00;102528.53;5050711;28;20029;-75
2023/01/26 09:16:22;;;;;;;86.15;23.15;;;;;;;-0.58;100.00;102531.19;5046583;28;20035;-75
2023/01/26 09:18:50;;;;;;;77.57;22.45;;;;;;;-0.57;100.00;102515.88;5051868;28;20025;-76
2023/01/26 09:21:15;;;;;;;89.65;23.30;;;;;;;-0.50;100.00;102525.63;5049887;28;20043;-76
2023/01/26 09:23:40;;;;;;;90.68;22.80;;;;;;;-0.47;100.00;102528.34;5051884;28;20025;-75
2023/01/26 09:26:06;;;;;;;89.88;24.50;;;;;;;-0.45;100.00;102532.69;5051374;28;20029;-76
2023/01/26 09:28:31;;;;;;;86.03;22.70;;;;;;;-0.45;100.00;102518.19;5049062;28;20547;-76
2023/01/26 09:31:01;;;;;;;86.93;24.35;;;;;;;-0.46;100.00;102521.50;5050081;28;20021;-76
2023/01/26 09:33:26;;;;;;;92.18;24.60;;;;;;;-0.44;100.00;102532.72;5056351;28;20025;-76
2023/01/26 09:35:51;;;;;;;83.88;23.55;;;;;;;-0.44;100.00;102535.28;5053674;28;20032;-76
2023/01/26 09:38:17;;;;;;;104.35;23.75;;;;;;;-0.44;100.00;102527.59;5053893;28;20504;-76
2023/01/26 09:41:03;;;;;;;87.82;23.23;;;;;;;-0.45;100.00;102541.22;5056186;28;20116;-76
2023/01/26 09:43:34;;;;;;;94.82;23.60;;;;;;;-0.41;100.00;102534.56;5047573;28;20384;-76
2023/01/26 09:46:13;;;;;;;97.28;23.08;;;;;;;-0.37;100.00;102534.78;5053879;28;20061;-76
2023/01/26 09:49:11;;;;;;;88.57;22.67;;;;;;;-0.31;100.00;102536.78;5049762;28;20047;-76
2023/01/26 09:52:24;;;;;;;89.93;23.25;;;;;;;-0.30;100.00;102536.81;5043931;28;20476;-76
2023/01/26 09:54:54;;;;;;;85.38;22.35;;;;;;;-0.33;100.00;102531.59;5013851;28;20034;-76
2023/01/26 09:57:36;;;;;;;91.32;24.35;;;;;;;-0.43;100.00;102524.22;5044515;28;20064;-76
2023/01/26 10:00:08;;;;;;;87.72;22.30;;;;;;;-0.32;100.00;102540.16;5049843;28;20067;-78
2023/01/26 10:02:33;;;;;;;93.07;23.55;;;;;;;-0.31;100.00;102545.34;5047904;28;20029;-77
2023/01/26 10:05:06;;;;;;;92.20;22.88;;;;;;;-0.38;100.00;102522.78;5055009;28;20079;-76
2023/01/26 10:07:32;;;;;;;83.82;23.13;;;;;;;-0.28;100.00;102531.78;5055404;28;20086;-76
2023/01/26 10:09:58;;;;;;;89.63;22.83;;;;;;;-0.31;100.00;102527.38;5054707;28;20100;-77
2023/01/26 10:12:30;;;;;;;86.78;23.50;;;;;;;-0.27;100.00;102525.84;5054953;28;20107;-77
2023/01/26 10:15:06;;;;;;;86.13;23.67;;;;;;;-0.16;100.00;102531.50;5052952;28;20101;-77
2023/01/26 10:17:41;;;;;;;92.07;23.65;;;;;;;-0.14;100.00;102528.19;5054239;28;20028;-77
2023/01/26 10:20:54;;;;;;;92.43;23.98;;;;;;;-0.05;100.00;102525.19;5055505;28;20124;-76
2023/01/26 10:23:24;;;;;;;81.88;22.92;;;;;;;0.00;100.00;102521.16;5024384;28;20041;-74
2023/01/26 10:25:50;;;;;;;84.28;24.70;;;;;;;0.02;100.00;102522.09;5051406;28;20035;-74
2023/01/26 10:28:28;;;;;;;93.93;23.63;;;;;;;0.07;100.00;102525.75;5047246;28;20098;-74
2023/01/26 10:30:53;;;;;;;91.57;24.90;;;;;;;0.11;100.00;102534.47;5054101;28;20104;-74
2023/01/26 10:33:18;;;;;;;97.57;25.17;;;;;;;0.12;100.00;102528.53;5047338;28;20029;-75
2023/01/26 10:35:44;;;;;;;85.82;23.63;;;;;;;0.13;100.00;102527.72;5049543;28;20130;-75
2023/01/26 10:38:39;;;;;;;91.57;24.23;;;;;;;0.13;100.00;102523.50;5053879;28;20049;-75
2023/01/26 10:41:19;;;;;;;104.05;24.42;;;;;;;0.16;100.00;102522.72;5054795;28;20024;-76
2023/01/26 10:44:08;;;;;;;93.15;24.63;;;;;;;0.19;100.00;102534.00;5054052;28;20144;-75
2023/01/26 10:46:36;;;;;;;108.65;25.58;;;;;;;0.24;100.00;102536.78;5054056;28;20436;-76
2023/01/26 10:49:08;;;;;;;104.53;28.85;;;;;;;0.30;100.00;102525.94;5054476;28;20021;-76
2023/01/26 10:51:35;;;;;;;104.97;27.42;;;;;;;0.33;100.00;102532.09;5053601;28;20472;-76
2023/01/26 10:54:26;;;;;;;104.13;26.23;;;;;;;0.38;100.00;102529.72;5054708;28;20165;-76
2023/01/26 10:56:53;;;;;;;105.93;27.73;;;;;;;0.42;100.00;102537.63;5054668;28;20028;-76
2023/01/26 10:59:39;;;;;;;122.05;27.67;;;;;;;0.52;100.00;102526.06;5053309;28;20025;-75
2023/01/26 11:02:10;;;;;;;104.70;26.50;;;;;;;0.60;100.00;102536.69;5054635;28;20464;-76
2023/01/26 11:04:37;;;;;;;111.40;27.55;;;;;;;0.65;100.00;102528.41;5054316;28;20060;-75
2023/01/26 11:07:24;;;;;;;99.97;27.17;;;;;;;0.73;100.00;102521.03;5053647;28;20025;-76
2023/01/26 11:09:51;;;;;;;94.50;27.73;;;;;;;0.79;100.00;102512.72;5054549;28;20028;-75
2023/01/26 11:12:18;;;;;;;111.43;27.42;;;;;;;0.99;100.00;102518.72;5054033;28;20511;-75
2023/01/26 11:14:59;;;;;;;116.00;28.33;;;;;;;1.14;100.00;102516.75;5053665;28;20028;-76
2023/01/26 11:17:29;;;;;;;104.78;28.83;;;;;;;1.22;100.00;102517.97;5054039;28;20021;-76
2023/01/26 11:20:19;;;;;;;119.57;30.25;;;;;;;1.28;100.00;102523.38;5053743;28;20029;-76
2023/01/26 11:22:56;;;;;;;110.85;27.80;;;;;;;1.33;100.00;102514.16;5054294;28;20108;-76
2023/01/26 11:25:24;;;;;;;112.90;28.95;;;;;;;1.39;100.00;102518.66;5053813;28;20102;-76
2023/01/26 11:28:04;;;;;;;115.43;28.45;;;;;;;1.46;100.00;102517.22;5053340;28;20025;-76
2023/01/26 11:30:59;;;;;;;107.93;29.00;;;;;;;1.49;100.00;102520.78;5053573;28;20529;-76
2023/01/26 11:33:42;;;;;;;109.07;28.92;;;;;;;1.56;100.00;102517.66;5053533;28;20025;-76
2023/01/26 11:36:27;;;;;;;107.03;27.50;;;;;;;1.65;100.00;102530.00;5054134;28;20044;-76
2023/01/26 11:39:14;;;;;;;114.97;27.25;;;;;;;1.79;100.00;102520.25;5053852;28;20036;-76
2023/01/26 11:42:04;;;;;;;107.05;28.73;;;;;;;1.97;100.00;102520.13;5052982;28;20385;-76
2023/01/26 11:44:56;;;;;;;110.20;28.48;;;;;;;2.20;100.00;102519.28;5053454;28;20033;-76
2023/01/26 11:47:34;;;;;;;115.18;28.55;;;;;;;2.34;100.00;102519.78;5053313;28;20103;-76
2023/01/26 11:50:37;;;;;;;112.43;27.80;;;;;;;2.40;100.00;102517.44;5053668;28;20481;-76